Time;durP1;ratioP1;P1;durP2;ratioP2;P2;SDS_P1;SDS_P2;PMS_P1;PMS_P2;Temp;Humidity;BMP_temperature;BMP_pressure;BME280_temperature;BME280_humidity;BME280_pressure;Samples;Min_cycle;Max_cycle;Signal;HPM_P1;HPM_P2
2023/09/22 00:01:00;;;;;;;4.70;4.20;;;;;;;22.73;54.29;97733.52;105715;1259;72405;-42
2023/09/22 00:03:30;;;;;;;5.20;4.20;;;;;;;22.73;54.17;97730.95;105647;1254;65430;-42
2023/09/22 00:05:58;;;;;;;4.60;4.00;;;;;;;22.71;54.18;97725.41;105461;1254;72782;-42
2023/09/22 00:08:26;;;;;;;4.70;4.00;;;;;;;22.71;54.14;97719.16;105649;1254;60446;-42
2023/09/22 00:10:54;;;;;;;4.50;3.90;;;;;;;22.71;53.99;97720.48;105678;1254;60546;-43
2023/09/22 00:13:22;;;;;;;5.90;4.40;;;;;;;22.70;54.34;97727.89;105903;1259;73940;-42
2023/09/22 00:15:50;;;;;;;4.40;4.00;;;;;;;22.70;54.37;97727.34;105780;1253;64002;-42
2023/09/22 00:18:18;;;;;;;4.70;3.70;;;;;;;22.69;54.25;97723.36;105679;1257;72731;-42
2023/09/22 00:20:46;;;;;;;5.50;4.30;;;;;;;22.69;54.30;97723.42;105572;1253;60920;-42
2023/09/22 00:23:15;;;;;;;5.30;4.20;;;;;;;22.69;54.29;97726.48;105650;1254;60547;-41
2023/09/22 00:25:42;;;;;;;5.50;4.10;;;;;;;22.68;54.31;97722.88;105600;1259;73914;-42
2023/09/22 00:28:13;;;;;;;5.00;3.90;;;;;;;22.68;54.37;97721.23;105514;1259;65336;-42
2023/09/22 00:30:41;;;;;;;7.90;4.40;;;;;;;22.67;54.45;97719.20;105625;1254;72453;-42
2023/09/22 00:33:10;;;;;;;5.20;4.10;;;;;;;22.67;54.27;97718.02;105404;1254;60495;-42
2023/09/22 00:35:39;;;;;;;5.40;4.20;;;;;;;22.66;54.43;97720.20;105623;1254;60521;-47
2023/09/22 00:38:10;;;;;;;4.80;4.10;;;;;;;22.66;54.38;97722.94;105555;1254;73873;-41
2023/09/22 00:40:38;;;;;;;5.90;4.30;;;;;;;22.66;54.36;97727.69;105766;1258;64656;-41
2023/09/22 00:43:10;;;;;;;5.50;4.20;;;;;;;22.65;54.28;97728.54;105641;1254;72892;-41
2023/09/22 00:45:42;;;;;;;5.00;4.20;;;;;;;22.65;54.45;97723.00;105697;1254;60622;-41
2023/09/22 00:48:10;;;;;;;6.20;4.30;;;;;;;22.64;54.45;97723.38;106248;1257;60422;-41
2023/09/22 00:50:38;;;;;;;5.70;4.40;;;;;;;22.63;54.53;97721.27;105558;1262;74384;-42
2023/09/22 00:53:06;;;;;;;5.60;4.30;;;;;;;22.63;54.55;97723.23;105310;1254;64803;-41
2023/09/22 00:55:34;;;;;;;6.00;4.40;;;;;;;22.63;54.48;97720.96;105447;1259;72772;-41
2023/09/22 00:58:01;;;;;;;5.30;4.10;;;;;;;22.63;54.42;97720.71;105634;1259;60451;-41
2023/09/22 01:00:30;;;;;;;5.20;4.30;;;;;;;22.62;54.33;97719.61;105736;1253;61172;-41
2023/09/22 01:02:59;;;;;;;6.20;4.20;;;;;;;22.61;54.48;97717.50;105693;1259;73016;-42
2023/09/22 01:05:27;;;;;;;4.50;4.00;;;;;;;22.61;54.45;97716.08;105756;1259;65314;-42
2023/09/22 01:07:55;;;;;;;6.40;4.30;;;;;;;22.60;54.43;97717.08;105526;1254;72735;-41
2023/09/22 01:10:23;;;;;;;4.80;4.20;;;;;;;22.60;54.50;97711.94;105592;1259;60661;-41
2023/09/22 01:12:53;;;;;;;9.00;4.50;;;;;;;22.59;54.59;97710.59;105663;1258;60505;-41
2023/09/22 01:15:21;;;;;;;7.20;4.40;;;;;;;22.59;54.63;97707.31;105455;1259;72166;-41
2023/09/22 01:17:50;;;;;;;5.20;4.00;;;;;;;22.58;54.72;97703.02;105244;1255;64231;-41
2023/09/22 01:20:18;;;;;;;5.50;4.10;;;;;;;22.58;54.67;97705.89;105671;1254;72739;-41
2023/09/22 01:22:46;;;;;;;6.40;4.00;;;;;;;22.58;54.53;97702.14;105653;1254;60437;-41
2023/09/22 01:25:13;;;;;;;4.60;4.10;;;;;;;22.58;54.59;97703.55;105657;1254;60562;-42
2023/09/22 01:27:41;;;;;;;4.80;3.90;;;;;;;22.57;54.45;97704.64;105648;1259;72957;-41
2023/09/22 01:30:11;;;;;;;4.50;4.10;;;;;;;22.57;54.76;97701.36;105599;1254;65179;-41
2023/09/22 01:32:38;;;;;;;6.00;4.30;;;;;;;22.56;54.65;97705.11;105588;1254;74438;-41
2023/09/22 01:35:07;;;;;;;5.00;3.70;;;;;;;22.56;54.80;97709.24;105667;1254;60424;-41
2023/09/22 01:37:42;;;;;;;5.30;4.30;;;;;;;22.56;54.76;97709.70;105725;1254;60557;-42
2023/09/22 01:40:13;;;;;;;4.50;4.00;;;;;;;22.56;54.61;97707.29;105677;1260;72103;-41
2023/09/22 01:42:41;;;;;;;5.90;4.40;;;;;;;22.55;54.82;97706.17;105508;1254;65345;-41
2023/09/22 01:45:10;;;;;;;4.60;4.00;;;;;;;22.54;54.79;97708.59;105451;1259;198387;-41
2023/09/22 01:47:40;;;;;;;4.60;4.20;;;;;;;22.55;54.74;97710.15;105658;1259;60844;-41
2023/09/22 01:50:08;;;;;;;5.20;4.10;;;;;;;22.54;54.79;97707.17;105754;1259;60444;-41
2023/09/22 01:52:37;;;;;;;4.50;4.10;;;;;;;22.53;54.97;97705.85;105653;1259;73985;-41
2023/09/22 01:55:06;;;;;;;5.50;4.10;;;;;;;22.53;54.88;97705.08;105487;1259;65308;-42
2023/09/22 01:57:33;;;;;;;4.50;3.90;;;;;;;22.53;54.79;97703.98;105685;1259;71451;-41
2023/09/22 02:00:10;;;;;;;4.70;4.20;;;;;;;22.53;54.96;97704.44;105294;1254;60438;-42
2023/09/22 02:02:43;;;;;;;5.30;4.10;;;;;;;22.52;54.78;97699.22;105468;1259;60518;-41
2023/09/22 02:05:12;;;;;;;5.20;4.40;;;;;;;22.52;54.99;97699.30;105682;1256;73841;-42
2023/09/22 02:07:40;;;;;;;4.70;4.20;;;;;;;22.51;54.87;97701.09;105652;1257;65351;-41
2023/09/22 02:10:13;;;;;;;4.90;3.90;;;;;;;22.52;54.99;97699.91;105591;1257;72801;-41
2023/09/22 02:12:43;;;;;;;4.90;4.10;;;;;;;22.52;55.06;97698.27;105618;1257;60470;-41
2023/09/22 02:15:12;;;;;;;4.90;4.40;;;;;;;22.51;54.91;97696.17;105466;1256;60527;-42
2023/09/22 02:17:41;;;;;;;5.70;4.40;;;;;;;22.51;55.14;97692.74;105542;1260;73944;-41
2023/09/22 02:20:33;;;;;;;5.00;4.20;;;;;;;22.50;55.10;97688.05;105266;1257;63923;-41
2023/09/22 02:22:59;;;;;;;4.30;3.90;;;;;;;22.50;55.03;97682.11;105601;1256;72734;-41
2023/09/22 02:25:27;;;;;;;7.80;4.40;;;;;;;22.50;55.06;97682.98;105587;1256;60505;-41
2023/09/22 02:27:58;;;;;;;4.70;3.80;;;;;;;22.49;55.23;97682.81;105646;1254;60470;-41
2023/09/22 02:30:26;;;;;;;4.60;4.20;;;;;;;22.49;55.12;97684.85;105658;1260;73976;-41
2023/09/22 02:32:54;;;;;;;5.60;4.30;;;;;;;22.48;55.21;97678.91;105563;1259;64097;-41
2023/09/22 02:35:22;;;;;;;4.80;4.10;;;;;;;22.48;55.05;97678.75;105661;1257;71954;-44
2023/09/22 02:37:50;;;;;;;4.80;3.80;;;;;;;22.47;55.25;97675.46;105657;1259;60549;-41
2023/09/22 02:40:18;;;;;;;4.80;3.90;;;;;;;22.47;55.24;97683.55;105655;1259;60517;-42
2023/09/22 02:42:46;;;;;;;5.30;4.20;;;;;;;22.46;55.28;97686.21;105463;1259;72611;-41
2023/09/22 02:45:15;;;;;;;4.80;3.90;;;;;;;22.46;55.25;97686.60;105662;1259;65844;-41
2023/09/22 02:47:43;;;;;;;4.40;3.90;;;;;;;22.46;55.28;97682.94;105725;1259;72792;-42
2023/09/22 02:50:15;;;;;;;5.70;4.20;;;;;;;22.45;55.35;97682.69;105675;1254;60431;-42
2023/09/22 02:52:42;;;;;;;5.50;3.80;;;;;;;22.45;55.28;97684.88;105453;1252;60522;-42
2023/09/22 02:55:11;;;;;;;4.40;3.90;;;;;;;22.45;55.25;97683.02;105453;1259;73917;-41
2023/09/22 02:57:42;;;;;;;4.80;3.90;;;;;;;22.44;55.40;97684.25;105358;1259;65335;-41
2023/09/22 03:00:14;;;;;;;4.60;4.10;;;;;;;22.44;55.44;97686.03;105613;1257;71170;-41
2023/09/22 03:02:43;;;;;;;5.40;4.00;;;;;;;22.44;55.31;97682.69;105489;1259;60900;-42
2023/09/22 03:05:14;;;;;;;4.70;3.80;;;;;;;22.43;55.49;97682.82;105736;1254;60430;-41
2023/09/22 03:07:42;;;;;;;4.70;4.20;;;;;;;22.43;55.58;97682.36;105629;1254;73988;-41
2023/09/22 03:10:11;;;;;;;4.90;4.20;;;;;;;22.43;55.38;97682.82;105685;1262;65323;-41
2023/09/22 03:12:39;;;;;;;7.70;3.70;;;;;;;22.43;55.41;97680.80;105636;1253;72776;-41
2023/09/22 03:15:09;;;;;;;6.60;3.90;;;;;;;22.42;55.69;97680.40;105546;1257;61148;-42
2023/09/22 03:17:37;;;;;;;5.00;3.90;;;;;;;22.42;55.41;97682.36;105562;1253;60475;-42
2023/09/22 03:20:12;;;;;;;6.00;4.10;;;;;;;22.41;55.57;97683.52;105672;1261;72658;-42
2023/09/22 03:22:41;;;;;;;4.20;3.60;;;;;;;22.40;55.53;97686.23;105341;1253;64033;-42
2023/09/22 03:25:10;;;;;;;4.70;3.70;;;;;;;22.40;55.46;97682.31;105381;1256;71904;-42
2023/09/22 03:27:39;;;;;;;4.60;3.80;;;;;;;22.39;55.60;97681.23;105391;1253;60687;-42
2023/09/22 03:30:09;;;;;;;5.20;4.00;;;;;;;22.39;55.63;97681.61;105570;1259;60476;-42
2023/09/22 03:32:39;;;;;;;5.20;3.50;;;;;;;22.38;55.70;97677.88;105365;1254;73919;-42
2023/09/22 03:35:08;;;;;;;4.80;3.70;;;;;;;22.38;55.67;97678.41;105488;1259;65358;-42
2023/09/22 03:37:39;;;;;;;5.40;4.00;;;;;;;22.38;55.69;97678.41;105535;1254;72838;-42
2023/09/22 03:40:14;;;;;;;5.00;3.60;;;;;;;22.38;55.76;97682.62;105703;1259;60546;-41
2023/09/22 03:42:44;;;;;;;7.60;3.70;;;;;;;22.38;55.68;97678.95;105592;1255;60502;-42
2023/09/22 03:45:13;;;;;;;5.20;3.40;;;;;;;22.38;55.68;97679.09;105641;1253;73924;-42
2023/09/22 03:47:41;;;;;;;5.10;3.70;;;;;;;22.37;55.73;97677.78;105390;1254;65665;-42
2023/09/22 03:50:10;;;;;;;4.20;3.80;;;;;;;22.37;55.70;97677.70;105690;1254;72755;-42
2023/09/22 03:52:40;;;;;;;4.10;3.30;;;;;;;22.37;55.78;97680.89;105698;1259;60465;-42
2023/09/22 03:55:11;;;;;;;6.60;4.20;;;;;;;22.36;55.78;97684.54;105763;1254;60444;-43
2023/09/22 03:57:40;;;;;;;4.00;3.60;;;;;;;22.36;55.93;97689.22;105290;1262;72416;-41
2023/09/22 04:00:28;;;;;;;4.20;3.50;;;;;;;22.35;55.86;97688.52;105411;1259;65337;-44
2023/09/22 04:03:03;;;;;;;5.50;3.60;;;;;;;22.35;55.71;97687.83;105464;1256;71920;-43
2023/09/22 04:05:31;;;;;;;3.70;3.10;;;;;;;22.35;56.07;97686.64;105261;1253;60412;-42
2023/09/22 04:08:00;;;;;;;4.60;3.40;;;;;;;22.35;55.72;97690.23;105464;1254;60543;-42
2023/09/22 04:10:28;;;;;;;4.10;3.70;;;;;;;22.35;55.80;97693.02;105495;1260;74394;-42
2023/09/22 04:12:56;;;;;;;5.10;3.80;;;;;;;22.35;55.94;97693.35;105438;1254;65389;-42
2023/09/22 04:15:24;;;;;;;4.20;3.40;;;;;;;22.35;55.98;97696.94;105398;1257;71856;-42
2023/09/22 04:17:52;;;;;;;4.60;3.30;;;;;;;22.35;55.83;97693.73;105515;1254;60381;-43
2023/09/22 04:20:28;;;;;;;4.20;3.50;;;;;;;22.36;55.86;97693.35;105659;1254;60397;-43
2023/09/22 04:22:58;;;;;;;3.70;3.30;;;;;;;22.35;55.85;97692.96;105346;1260;73904;-43
2023/09/22 04:25:34;;;;;;;4.60;3.30;;;;;;;22.35;56.00;97688.67;105284;1261;65327;-44
2023/09/22 04:33:04;;;;;;;4.30;3.40;;;;;;;22.33;56.08;97681.63;105626;1256;61650;-45
2023/09/22 04:35:34;;;;;;;5.30;3.70;;;;;;;22.33;55.87;97685.29;105628;1259;61111;-45
2023/09/22 04:38:05;;;;;;;4.50;3.30;;;;;;;22.33;55.90;97683.34;105651;1258;76047;-43
2023/09/22 04:40:36;;;;;;;3.70;3.40;;;;;;;22.32;56.10;97680.54;105557;1258;65318;-43
2023/09/22 04:43:07;;;;;;;4.80;3.40;;;;;;;22.32;56.24;97679.14;106109;1254;72775;-44
2023/09/22 04:45:45;;;;;;;6.70;3.80;;;;;;;22.32;56.02;97677.65;105547;1254;60609;-42
2023/09/22 04:48:14;;;;;;;3.80;3.30;;;;;;;22.32;56.06;97685.60;106088;1254;60765;-44
2023/09/22 04:50:42;;;;;;;4.50;3.90;;;;;;;22.32;56.12;97684.42;105560;1258;72951;-42
2023/09/22 04:53:10;;;;;;;5.60;3.30;;;;;;;22.31;56.14;97691.42;107103;1258;64058;-44
2023/09/22 04:55:38;;;;;;;4.30;3.50;;;;;;;22.32;56.04;97691.20;105662;1254;72383;-42
2023/09/22 04:58:07;;;;;;;6.60;3.10;;;;;;;22.32;56.40;97687.92;105545;1259;60441;-43
2023/09/22 05:00:36;;;;;;;4.60;3.10;;;;;;;22.31;56.15;97686.76;105412;1259;60412;-42
2023/09/22 05:03:07;;;;;;;7.50;3.40;;;;;;;22.31;56.37;97685.34;105415;1259;73111;-41
2023/09/22 05:05:35;;;;;;;6.20;3.40;;;;;;;22.30;56.88;97688.85;105712;1254;65339;-41
2023/09/22 05:08:05;;;;;;;4.50;3.40;;;;;;;22.29;56.99;97685.56;105535;1259;72786;-42
2023/09/22 05:10:33;;;;;;;5.10;3.60;;;;;;;22.30;57.06;97686.52;105726;1258;61143;-40
2023/09/22 05:13:01;;;;;;;4.80;3.50;;;;;;;22.31;57.32;97684.73;105282;1252;60844;-41
2023/09/22 05:15:29;;;;;;;6.60;3.50;;;;;;;22.31;57.39;97687.45;105491;1254;72699;-40
2023/09/22 05:17:57;;;;;;;4.60;3.60;;;;;;;22.32;57.85;97688.17;105485;1253;65359;-41
2023/09/22 05:20:25;;;;;;;5.60;3.50;;;;;;;22.33;57.76;97683.57;105480;1259;72757;-43
2023/09/22 05:22:53;;;;;;;8.30;3.80;;;;;;;22.34;57.91;97683.60;105401;1257;60517;-41
2023/09/22 05:25:21;;;;;;;9.20;4.10;;;;;;;22.35;58.16;97686.80;105574;1259;60952;-46
2023/09/22 05:27:50;;;;;;;6.10;3.60;;;;;;;22.35;58.41;97685.94;105412;1263;76047;-46
2023/09/22 05:30:18;;;;;;;12.30;4.00;;;;;;;22.33;58.65;97681.46;105364;1260;65643;-47
2023/09/22 05:32:46;;;;;;;7.90;3.60;;;;;;;22.30;58.73;97687.67;105521;1259;72870;-47
2023/09/22 05:35:15;;;;;;;8.50;3.80;;;;;;;22.29;58.74;97691.64;105386;1254;60478;-45
2023/09/22 05:37:44;;;;;;;5.30;3.70;;;;;;;22.26;59.03;97694.35;105606;1257;60573;-47
2023/09/22 05:40:12;;;;;;;6.70;3.90;;;;;;;22.24;59.11;97694.93;105471;1259;73891;-45
2023/09/22 05:42:42;;;;;;;5.80;3.80;;;;;;;22.22;59.38;97691.48;105412;1259;65251;-43
2023/09/22 05:45:11;;;;;;;9.20;3.90;;;;;;;22.19;60.04;97686.16;105527;1254;72779;-45
2023/09/22 05:47:39;;;;;;;10.60;4.00;;;;;;;22.16;60.30;97692.67;105440;1254;61106;-44
2023/09/22 05:50:10;;;;;;;8.70;3.80;;;;;;;22.13;60.69;97690.84;105743;1251;60543;-44
2023/09/22 05:52:39;;;;;;;6.10;3.80;;;;;;;22.11;61.12;97686.37;105598;1258;73919;-43
2023/09/22 05:55:10;;;;;;;10.50;4.10;;;;;;;22.09;61.43;97689.46;105545;1254;65506;-44
2023/09/22 05:57:38;;;;;;;10.70;4.00;;;;;;;22.06;61.59;97685.00;105538;1254;72761;-43
2023/09/22 06:00:16;;;;;;;6.70;3.60;;;;;;;22.04;61.79;97691.83;105594;1254;60511;-43
2023/09/22 06:02:49;;;;;;;12.70;4.10;;;;;;;22.02;62.11;97687.21;105618;1254;60536;-47
2023/09/22 06:05:19;;;;;;;9.50;4.00;;;;;;;22.01;62.18;97684.86;105533;1252;74653;-45
2023/09/22 06:07:47;;;;;;;7.40;3.60;;;;;;;22.01;62.31;97685.88;105628;1254;65454;-47
2023/09/22 06:10:15;;;;;;;7.90;3.60;;;;;;;22.01;62.27;97684.86;105428;1260;73689;-47
2023/09/22 06:12:44;;;;;;;6.50;3.60;;;;;;;22.00;62.19;97685.79;105309;1259;61165;-47
2023/09/22 06:15:12;;;;;;;6.60;3.60;;;;;;;21.99;62.15;97691.06;105501;1258;60534;-47
2023/09/22 06:17:40;;;;;;;5.40;3.50;;;;;;;21.99;62.26;97697.21;105442;1259;73955;-45
2023/09/22 06:20:18;;;;;;;5.90;3.50;;;;;;;21.99;62.48;97695.05;106172;1259;65325;-46
2023/09/22 06:22:49;;;;;;;4.30;3.40;;;;;;;21.98;62.71;97696.49;105371;1260;72748;-47
2023/09/22 06:25:18;;;;;;;7.60;3.70;;;;;;;21.97;63.14;97694.23;105493;1254;60514;-46
2023/09/22 06:27:46;;;;;;;5.50;3.80;;;;;;;21.97;63.22;97697.75;105053;1255;60360;-44
2023/09/22 06:30:17;;;;;;;4.70;3.20;;;;;;;21.97;63.49;97700.55;105261;1258;73146;-43
2023/09/22 06:32:46;;;;;;;7.30;3.50;;;;;;;21.96;63.74;97697.17;105830;1254;66090;-44
2023/09/22 06:35:14;;;;;;;10.50;3.50;;;;;;;21.95;63.70;97695.39;105597;1254;72768;-44
2023/09/22 06:37:43;;;;;;;9.10;3.60;;;;;;;21.93;63.90;97702.28;105379;1254;60476;-45
2023/09/22 06:40:11;;;;;;;7.70;3.50;;;;;;;21.93;64.13;97698.86;105779;1254;61030;-33
2023/09/22 06:42:44;;;;;;;5.40;3.50;;;;;;;21.93;64.25;97696.38;105368;1252;72892;-44
2023/09/22 06:45:18;;;;;;;10.30;3.70;;;;;;;21.93;64.52;97701.36;105474;1259;65993;-44
2023/09/22 06:47:48;;;;;;;8.40;3.40;;;;;;;21.92;64.52;97712.64;105589;1260;73292;-45
2023/09/22 06:55:37;;;;;;;8.40;3.30;;;;;;;21.92;64.89;97714.66;105599;1254;61652;-43
2023/09/22 06:58:07;;;;;;;9.10;4.00;;;;;;;21.93;64.92;97712.72;105438;1254;72894;-43
2023/09/22 07:00:35;;;;;;;7.80;3.30;;;;;;;21.92;65.10;97713.26;105620;1258;64021;-45
2023/09/22 07:03:04;;;;;;;6.50;3.80;;;;;;;21.91;65.48;97708.56;105580;1257;72771;-46
2023/09/22 07:20:27;;;;;;;6.40;2.90;;;;;;;21.94;65.78;97721.00;105452;1259;64044;-41
2023/09/22 07:22:56;;;;;;;3.80;2.90;;;;;;;21.96;66.12;97718.75;105291;1255;72202;-40
2023/09/22 07:25:26;;;;;;;7.00;3.30;;;;;;;21.97;66.18;97716.29;105738;1260;60967;-43
2023/09/22 07:27:54;;;;;;;5.30;3.20;;;;;;;21.99;66.08;97717.02;105365;1259;60438;-40
2023/09/22 07:30:23;;;;;;;6.40;3.30;;;;;;;22.02;66.10;97717.75;105470;1261;73931;-43
2023/09/22 07:32:51;;;;;;;5.90;3.40;;;;;;;22.02;66.20;97718.05;105349;1259;65270;-44
2023/09/22 07:35:20;;;;;;;6.00;3.20;;;;;;;22.04;66.18;97720.33;105232;1254;75194;-38
2023/09/22 07:37:48;;;;;;;5.70;3.40;;;;;;;22.05;66.04;97720.59;105422;1260;60621;-39
2023/09/22 07:40:16;;;;;;;6.00;3.30;;;;;;;22.06;66.19;97718.52;105714;1260;60344;-41
2023/09/22 07:42:44;;;;;;;9.10;3.50;;;;;;;22.08;66.44;97717.35;105794;1257;73036;-40
2023/09/22 07:45:12;;;;;;;6.40;3.30;;;;;;;22.12;66.83;97718.56;105677;1257;65340;-45
2023/09/22 07:47:40;;;;;;;5.90;3.00;;;;;;;22.13;66.76;97716.80;105602;1258;73208;-40
2023/09/22 07:50:09;;;;;;;5.40;3.10;;;;;;;22.16;66.62;97716.67;105501;1259;60876;-39
2023/09/22 07:52:37;;;;;;;5.90;2.60;;;;;;;22.18;66.73;97710.77;105716;1259;60351;-39
2023/09/22 07:55:05;;;;;;;4.90;3.00;;;;;;;22.21;66.78;97713.23;105439;1254;76116;-39
2023/09/22 07:57:33;;;;;;;3.80;2.90;;;;;;;22.23;66.73;97717.45;105292;1260;65322;-40
2023/09/22 08:00:03;;;;;;;5.70;3.20;;;;;;;22.25;66.57;97720.05;105495;1257;70754;-42
2023/09/22 08:02:37;;;;;;;6.10;3.00;;;;;;;22.27;66.73;97721.95;105480;1260;60940;-39
2023/09/22 08:05:06;;;;;;;3.60;3.00;;;;;;;22.30;66.69;97725.16;105461;1254;63499;-42
2023/09/22 08:07:34;;;;;;;4.10;2.90;;;;;;;22.32;66.52;97729.09;107858;1257;72823;-41
2023/09/22 08:10:05;;;;;;;4.70;2.70;;;;;;;22.35;66.46;97729.45;105593;1259;66616;-40
2023/09/22 08:12:34;;;;;;;8.10;3.10;;;;;;;22.37;66.18;97727.29;105291;1259;71474;-42
2023/09/22 08:15:04;;;;;;;4.70;2.80;;;;;;;22.39;66.10;97715.67;105530;1257;60518;-42
2023/09/22 08:17:32;;;;;;;6.90;2.90;;;;;;;22.41;65.99;97713.21;105350;1254;62431;-41
2023/09/22 08:20:01;;;;;;;5.80;3.00;;;;;;;22.44;65.69;97709.50;105535;1260;72639;-40
2023/09/22 08:22:29;;;;;;;3.80;2.70;;;;;;;22.45;65.65;97706.08;105655;1254;64522;-46
2023/09/22 08:24:57;;;;;;;6.40;3.20;;;;;;;22.47;65.78;97704.38;105534;1264;72751;-41
2023/09/22 08:27:25;;;;;;;6.60;2.80;;;;;;;22.50;66.05;97705.74;105495;1259;60539;-41
2023/09/22 08:29:53;;;;;;;8.90;3.30;;;;;;;22.52;65.85;97704.05;105578;1257;60519;-43
2023/09/22 08:32:21;;;;;;;5.60;2.90;;;;;;;22.53;65.87;97708.27;105478;1259;74889;-42
2023/09/22 08:34:49;;;;;;;8.80;3.30;;;;;;;22.55;65.86;97710.45;105685;1259;67207;-43
2023/09/22 08:37:17;;;;;;;5.20;3.20;;;;;;;22.55;66.02;97708.45;105555;1259;72743;-41
2023/09/22 08:39:45;;;;;;;5.50;2.80;;;;;;;22.57;65.82;97714.93;105291;1261;63082;-40
2023/09/22 08:42:13;;;;;;;8.50;3.50;;;;;;;22.59;65.91;97712.08;105215;1260;60590;-43
2023/09/22 08:44:41;;;;;;;10.00;3.50;;;;;;;22.62;66.11;97710.65;105500;1257;73027;-40
2023/09/22 08:48:18;;;;;;;11.00;3.50;;;;;;;22.69;66.21;97704.70;102420;1292;600336;-48
2023/09/22 08:50:45;;;;;;;5.80;2.70;;;;;;;22.75;66.96;97706.80;104278;1271;100182;-34
2023/09/22 08:53:13;;;;;;;7.80;3.10;;;;;;;22.93;66.11;97708.81;104411;1271;311715;-33
2023/09/22 08:55:40;;;;;;;4.90;2.90;;;;;;;22.99;65.50;97710.44;104443;1270;71972;-35
2023/09/22 08:58:07;;;;;;;6.50;3.30;;;;;;;23.01;65.21;97708.89;105009;1272;65384;-33
2023/09/22 09:00:35;;;;;;;6.20;3.20;;;;;;;23.03;65.08;97712.10;105187;1259;72650;-32
2023/09/22 09:03:09;;;;;;;7.90;3.00;;;;;;;23.04;64.64;97716.48;105205;1259;215939;-36
2023/09/22 09:05:39;;;;;;;8.70;3.30;;;;;;;23.08;64.48;97717.85;105330;1256;60290;-34
2023/09/22 09:08:18;;;;;;;6.20;2.90;;;;;;;23.11;64.55;97710.08;105781;1260;73193;-34
2023/09/22 09:10:47;;;;;;;3.70;2.90;;;;;;;23.14;64.71;97706.42;105239;1261;66647;-34
2023/09/22 09:13:17;;;;;;;5.90;3.10;;;;;;;23.15;64.16;97708.38;105624;1262;72649;-35
2023/09/22 09:15:50;;;;;;;8.80;3.50;;;;;;;23.14;64.29;97711.42;105207;1261;60710;-34
2023/09/22 09:18:19;;;;;;;6.00;3.30;;;;;;;23.14;64.20;97709.08;105533;1256;60803;-34
2023/09/22 09:20:48;;;;;;;4.00;3.10;;;;;;;23.13;64.47;97702.90;105372;1258;71927;-33
2023/09/22 09:23:21;;;;;;;7.80;3.20;;;;;;;23.13;64.31;97706.65;105163;1257;65268;-36
2023/09/22 09:25:55;;;;;;;5.60;3.10;;;;;;;23.14;64.67;97706.58;105106;1256;74602;-34
2023/09/22 09:28:24;;;;;;;6.50;3.10;;;;;;;23.14;64.33;97707.52;105319;1261;61194;-35
2023/09/22 09:30:53;;;;;;;7.60;3.90;;;;;;;23.14;64.17;97704.87;105230;1260;61506;-34
2023/09/22 09:33:23;;;;;;;5.70;3.10;;;;;;;23.14;64.25;97701.42;105407;1256;72723;-34
2023/09/22 09:35:51;;;;;;;6.40;3.00;;;;;;;23.14;64.11;97700.49;105425;1257;65229;-34
2023/09/22 09:38:20;;;;;;;6.00;3.30;;;;;;;23.14;64.16;97697.45;105430;1261;73903;-35
2023/09/22 09:40:47;;;;;;;5.30;3.00;;;;;;;23.14;63.86;97696.20;105236;1256;60661;-34
2023/09/22 09:43:15;;;;;;;4.60;2.70;;;;;;;23.14;63.85;97695.66;104984;1256;59645;-34
2023/09/22 09:45:52;;;;;;;6.30;3.30;;;;;;;23.14;63.74;97697.30;105081;1256;74025;-34
2023/09/22 09:48:23;;;;;;;5.80;3.10;;;;;;;23.15;63.69;97694.02;105331;1256;66233;-33
2023/09/22 09:50:53;;;;;;;5.10;2.90;;;;;;;23.17;63.65;97692.23;105110;1256;71507;-34
2023/09/22 09:53:28;;;;;;;5.60;2.60;;;;;;;23.19;63.65;97692.24;105453;1256;59747;-37
2023/09/22 09:55:59;;;;;;;;;;;;;;;23.19;63.69;97690.92;107880;1260;59411;-33
2023/09/22 09:58:30;;;;;;;5.70;2.50;;;;;;;23.20;63.89;97684.61;105365;1256;74101;-35
2023/09/22 10:01:00;;;;;;;10.20;2.80;;;;;;;23.21;63.76;97683.14;105463;1261;66342;-36
2023/09/22 10:03:27;;;;;;;9.50;2.90;;;;;;;23.23;63.91;97680.19;105300;1256;72686;-36
2023/09/22 10:05:56;;;;;;;6.50;3.10;;;;;;;23.25;63.81;97677.23;105093;1262;61084;-33
2023/09/22 10:08:33;;;;;;;7.30;2.60;;;;;;;23.27;63.63;97671.63;105517;1256;60121;-32
2023/09/22 10:14:47;;;;;;;6.30;2.90;;;;;;;23.28;63.21;97667.72;105482;1256;67548;-34
2023/09/22 10:17:21;;;;;;;7.40;3.00;;;;;;;23.28;63.08;97669.13;105389;1261;72846;-33
2023/09/22 10:19:50;;;;;;;5.40;2.60;;;;;;;23.28;62.93;97672.64;105206;1256;61284;-33
2023/09/22 10:22:18;;;;;;;7.10;3.00;;;;;;;23.28;62.78;97672.48;105437;1261;59880;-35
2023/09/22 10:25:14;;;;;;;8.80;2.90;;;;;;;23.29;62.73;97672.27;105210;1257;72832;-37
2023/09/22 10:27:54;;;;;;;5.30;3.00;;;;;;;23.29;62.59;97673.75;105192;1260;67250;-35
2023/09/22 10:30:45;;;;;;;4.00;2.50;;;;;;;23.29;62.67;97669.92;105452;1261;73268;-35
2023/09/22 10:33:16;;;;;;;6.20;2.90;;;;;;;23.30;62.26;97668.27;105683;1256;60287;-35
2023/09/22 10:35:44;;;;;;;4.00;3.10;;;;;;;23.30;62.45;97668.28;105273;1261;60353;-34
2023/09/22 10:38:11;;;;;;;6.90;2.80;;;;;;;23.31;62.73;97669.55;105822;1257;73888;-34
2023/09/22 10:40:40;;;;;;;5.40;2.80;;;;;;;23.33;62.93;97671.42;105598;1261;67451;-36
2023/09/22 10:43:08;;;;;;;5.90;2.80;;;;;;;23.34;62.61;97671.13;105611;1259;72318;-35
2023/09/22 10:45:36;;;;;;;5.00;3.10;;;;;;;23.35;62.58;97663.59;105328;1262;61825;-35
2023/09/22 10:48:04;;;;;;;7.80;3.30;;;;;;;23.37;62.79;97670.86;104968;1256;60993;-33
2023/09/22 10:50:32;;;;;;;6.20;3.00;;;;;;;23.39;62.93;97668.91;105366;1259;74039;-34
2023/09/22 10:53:02;;;;;;;4.20;2.90;;;;;;;23.41;62.84;97668.38;105164;1259;66952;-33
2023/09/22 10:55:31;;;;;;;4.20;2.70;;;;;;;23.42;62.73;97664.17;105227;1256;72659;-34
2023/09/22 10:58:03;;;;;;;7.00;2.70;;;;;;;23.43;62.69;97663.02;105391;1257;59723;-33
2023/09/22 11:00:32;;;;;;;7.70;2.60;;;;;;;23.43;62.59;97662.61;105261;1257;59719;-34
2023/09/22 11:03:06;;;;;;;7.30;3.20;;;;;;;23.44;62.36;97664.34;105268;1257;72234;-32
2023/09/22 11:05:34;;;;;;;5.60;3.00;;;;;;;23.45;62.55;97664.73;105017;1255;67486;-34
2023/09/22 11:08:18;;;;;;;6.00;3.40;;;;;;;23.49;62.54;97664.14;105278;1256;72644;-32
2023/09/22 11:10:50;;;;;;;7.10;3.20;;;;;;;23.51;62.30;97673.35;105296;1259;60250;-31
2023/09/22 11:13:18;;;;;;;10.60;3.80;;;;;;;23.52;61.69;97676.73;105433;1261;59647;-32
2023/09/22 11:15:49;;;;;;;8.50;3.50;;;;;;;23.55;60.90;97675.48;105228;1260;73024;-33
2023/09/22 11:18:32;;;;;;;7.60;3.50;;;;;;;23.56;60.90;97671.98;105586;1256;65334;-31
2023/09/22 11:21:05;;;;;;;6.10;3.70;;;;;;;23.57;60.76;97667.54;105502;1257;72772;-31
2023/09/22 11:23:35;;;;;;;5.10;3.00;;;;;;;23.58;60.59;97664.42;105571;1259;59663;-32
2023/09/22 11:26:08;;;;;;;5.00;3.20;;;;;;;23.60;60.52;97670.61;105137;1261;59724;-32
2023/09/22 11:28:39;;;;;;;9.40;3.10;;;;;;;23.61;60.23;97669.59;105237;1257;72459;-32
2023/09/22 11:31:14;;;;;;;8.40;3.20;;;;;;;23.61;60.25;97665.54;107300;1255;64772;-31
2023/09/22 11:33:43;;;;;;;4.30;3.00;;;;;;;23.61;60.07;97663.73;105743;1257;72484;-32
2023/09/22 11:36:11;;;;;;;9.70;3.10;;;;;;;23.61;59.91;97666.63;105148;1262;60443;-33
2023/09/22 11:38:45;;;;;;;4.70;2.90;;;;;;;23.62;60.01;97667.17;105567;1259;60496;-31
2023/09/22 11:41:48;;;;;;;6.80;3.10;;;;;;;23.63;59.68;97670.06;105448;1259;74373;-31
2023/09/22 11:44:18;;;;;;;5.80;3.00;;;;;;;23.64;59.76;97669.37;105198;1256;66107;-32
2023/09/22 11:46:56;;;;;;;5.70;2.90;;;;;;;23.66;59.75;97670.31;105168;1263;74456;-33
2023/09/22 11:49:38;;;;;;;5.00;2.70;;;;;;;23.67;59.88;97676.27;104944;1257;60806;-33
2023/09/22 11:52:06;;;;;;;8.60;3.00;;;;;;;23.67;59.62;97673.84;105220;1257;60959;-31
2023/09/22 11:54:34;;;;;;;5.70;2.60;;;;;;;23.68;59.79;97672.45;105045;1257;74104;-33
2023/09/22 11:57:03;;;;;;;6.80;3.10;;;;;;;23.70;59.87;97677.37;105449;1259;66987;-33
2023/09/22 11:59:34;;;;;;;4.70;2.70;;;;;;;23.71;59.68;97675.73;105116;1257;71236;-31
2023/09/22 12:02:18;;;;;;;6.10;3.00;;;;;;;23.72;59.92;97677.14;105317;1259;60071;-32
2023/09/22 12:05:06;;;;;;;3.80;2.50;;;;;;;23.73;59.82;97678.72;105483;1260;60291;-31
2023/09/22 12:18:52;;;;;;;5.10;2.80;;;;;;;23.75;59.93;97671.06;105276;1259;75794;-32